Time;durP1;ratioP1;P1;durP2;ratioP2;P2;SDS_P1;SDS_P2;PMS_P1;PMS_P2;Temp;Humidity;BMP_temperature;BMP_pressure;BME280_temperature;BME280_humidity;BME280_pressure;Samples;Min_cycle;Max_cycle;Signal;HPM_P1;HPM_P2
2024/04/12 00:01:39;;;;;;;;;;;;;;;15.46;55.55;100432.44;4289614;33;33361;-89
2024/04/12 00:04:09;;;;;;;11.25;6.28;;;;;;;15.20;56.34;100430.34;4303077;33;33114;-88
2024/04/12 00:06:39;;;;;;;10.85;6.25;;;;;;;15.07;56.45;100423.16;4302542;33;34659;-88
2024/04/12 00:09:17;;;;;;;14.15;6.53;;;;;;;14.72;57.43;100430.47;4312981;33;33821;-86
2024/04/12 00:11:52;;;;;;;11.60;6.10;;;;;;;14.90;57.08;100438.59;4298930;33;33532;-89
2024/04/12 00:14:21;;;;;;;10.13;5.40;;;;;;;15.23;56.36;100429.50;4301891;33;33489;-88
2024/04/12 00:16:52;;;;;;;10.30;6.37;;;;;;;15.27;56.11;100433.91;4307724;33;34780;-87
2024/04/12 00:19:21;;;;;;;10.02;5.53;;;;;;;15.08;56.44;100431.03;4302905;33;33693;-87
2024/04/12 00:21:53;;;;;;;11.82;6.35;;;;;;;15.05;56.96;100424.91;4284315;33;34445;-87
2024/04/12 00:24:26;;;;;;;10.43;6.55;;;;;;;15.36;55.70;100426.19;4285561;33;34203;-86
2024/04/12 00:26:55;;;;;;;10.88;5.68;;;;;;;15.06;56.52;100421.41;4268419;33;33433;-86
2024/04/12 00:29:25;;;;;;;9.63;6.15;;;;;;;15.29;55.52;100422.63;4282968;33;33495;-86
2024/04/12 00:31:54;;;;;;;10.63;5.85;;;;;;;15.03;56.65;100422.25;4279743;33;34244;-87
2024/04/12 00:34:26;;;;;;;12.90;6.65;;;;;;;15.13;56.21;100425.00;4295501;33;33111;-83
2024/04/12 00:37:06;;;;;;;10.10;6.05;;;;;;;15.38;55.54;100424.50;4280922;33;33740;-85
2024/04/12 00:39:36;;;;;;;9.60;6.15;;;;;;;15.38;55.92;100421.88;4300490;33;34287;-84
2024/04/12 00:42:07;;;;;;;9.18;6.22;;;;;;;15.68;54.80;100417.91;4309295;33;33937;-86
2024/04/12 00:44:41;;;;;;;9.93;6.32;;;;;;;15.31;55.76;100414.81;4303425;33;33216;-85
2024/04/12 00:47:15;;;;;;;11.93;6.57;;;;;;;15.66;54.88;100417.91;4307946;33;34762;-87
2024/04/12 00:49:49;;;;;;;10.68;5.80;;;;;;;15.26;56.41;100421.69;4300585;33;34986;-84
2024/04/12 00:52:23;;;;;;;11.70;6.80;;;;;;;15.36;56.21;100414.88;4300114;33;33531;-85
2024/04/12 00:55:09;;;;;;;10.77;7.32;;;;;;;15.37;56.34;100406.16;4300887;33;33325;-87
2024/04/12 00:57:37;;;;;;;13.43;6.65;;;;;;;15.15;56.75;100416.31;4298990;33;33157;-88
2024/04/12 01:00:09;;;;;;;9.95;6.28;;;;;;;15.36;56.47;100414.88;4300707;33;32825;-84
2024/04/12 01:02:39;;;;;;;8.10;5.32;;;;;;;15.40;56.37;100414.06;4286097;33;34987;-84
2024/04/12 01:05:12;;;;;;;8.00;5.28;;;;;;;15.56;55.90;100409.03;4298056;33;80570;-85
2024/04/12 01:07:48;;;;;;;10.43;5.65;;;;;;;15.64;56.19;100400.41;4300576;33;33618;-86
2024/04/12 01:10:24;;;;;;;10.35;5.40;;;;;;;15.57;56.63;100404.69;4287852;33;34821;-87
2024/04/12 01:12:56;;;;;;;10.68;6.85;;;;;;;15.62;56.51;100413.47;4289246;33;34679;-87
2024/04/12 01:15:32;;;;;;;8.80;6.62;;;;;;;15.14;56.47;100418.91;4288978;33;33355;-86
2024/04/12 01:18:04;;;;;;;8.90;5.80;;;;;;;15.29;56.49;100416.50;4302078;33;34846;-87
2024/04/12 01:20:35;;;;;;;10.40;6.10;;;;;;;15.39;56.99;100414.91;4288764;33;33981;-84
2024/04/12 01:23:05;;;;;;;11.75;6.47;;;;;;;15.38;56.72;100424.50;4301202;33;33990;-88
2024/04/12 01:25:33;;;;;;;9.30;5.12;;;;;;;15.13;57.11;100422.41;4305444;33;33609;-85
2024/04/12 01:28:02;;;;;;;10.13;6.25;;;;;;;15.60;55.99;100427.37;4302050;33;33764;-87
2024/04/12 01:30:30;;;;;;;9.77;5.80;;;;;;;14.91;58.46;100431.62;4285032;33;35160;-84
2024/04/12 01:32:57;;;;;;;11.00;6.72;;;;;;;15.02;58.51;100437.91;4300322;33;33474;-88
2024/04/12 01:35:24;;;;;;;9.98;6.25;;;;;;;14.94;58.64;100440.41;4288638;33;34405;-87
2024/04/12 01:37:51;;;;;;;11.35;6.65;;;;;;;14.93;58.71;100433.44;4291038;33;33459;-86
2024/04/12 01:40:18;;;;;;;9.23;5.82;;;;;;;14.85;58.84;100435.03;4302592;33;35013;-85
2024/04/12 01:42:45;;;;;;;11.73;6.70;;;;;;;15.08;57.89;100424.94;4301999;33;33990;-86
2024/04/12 01:45:14;;;;;;;8.63;5.95;;;;;;;15.10;57.96;100428.44;4307351;33;32990;-87
2024/04/12 01:47:47;;;;;;;10.88;6.82;;;;;;;15.16;58.03;100427.66;4288975;33;34864;-90
2024/04/12 01:50:22;;;;;;;10.27;6.80;;;;;;;14.98;58.68;100434.38;4288869;33;33977;-88
2024/04/12 01:52:54;;;;;;;13.52;7.53;;;;;;;14.90;59.22;100435.97;4302189;33;33706;-88
2024/04/12 01:55:23;;;;;;;12.77;7.93;;;;;;;14.87;58.74;100440.28;4301737;33;35057;-89
2024/04/12 01:57:51;;;;;;;10.38;7.15;;;;;;;14.69;58.84;100441.72;4288658;33;33798;-85
2024/04/12 02:00:20;;;;;;;11.85;7.65;;;;;;;14.53;60.05;100439.72;4304810;33;34171;-86
2024/04/12 02:02:51;;;;;;;14.20;7.90;;;;;;;14.63;59.58;100446.87;4302234;33;33951;-89
2024/04/12 02:05:28;;;;;;;10.68;7.78;;;;;;;14.26;60.33;100453.13;4310430;33;33582;-88
2024/04/12 02:07:56;;;;;;;12.23;8.15;;;;;;;14.48;59.87;100444.84;4301532;33;34617;-88
2024/04/12 02:10:22;;;;;;;12.88;8.43;;;;;;;14.41;59.63;100442.97;4301389;33;33721;-83
2024/04/12 02:12:53;;;;;;;11.23;7.25;;;;;;;14.53;59.37;100430.16;4302227;33;33785;-84
2024/04/12 02:15:25;;;;;;;12.85;8.13;;;;;;;14.94;58.47;100440.41;4302405;33;33506;-87
2024/04/12 02:17:58;;;;;;;10.85;7.37;;;;;;;14.71;59.04;100441.78;4301761;33;35040;-85
2024/04/12 02:20:33;;;;;;;12.55;7.85;;;;;;;14.78;59.01;100444.50;4302458;33;33930;-88
2024/04/12 02:23:07;;;;;;;12.05;8.07;;;;;;;14.80;59.46;100445.38;4301565;33;33955;-83
2024/04/12 02:25:35;;;;;;;12.63;8.32;;;;;;;14.49;60.16;100451.84;4289467;33;34473;-87
2024/04/12 02:28:09;;;;;;;12.27;8.02;;;;;;;14.40;60.35;100449.03;4301955;33;33908;-89
2024/04/12 02:30:44;;;;;;;11.65;8.13;;;;;;;14.64;59.85;100452.97;4300501;33;33961;-83
2024/04/12 02:33:16;;;;;;;12.40;7.43;;;;;;;14.65;59.60;100455.59;4302168;33;33494;-87
2024/04/12 02:35:43;;;;;;;10.77;8.05;;;;;;;14.83;59.23;100458.50;4302533;33;33797;-86
2024/04/12 02:38:15;;;;;;;10.10;7.18;;;;;;;14.93;58.68;100459.53;4302217;33;33507;-88
2024/04/12 02:40:43;;;;;;;9.65;7.85;;;;;;;14.84;59.10;100457.63;4288589;33;35084;-85
2024/04/12 02:43:15;;;;;;;9.45;7.00;;;;;;;14.77;59.15;100455.81;4302368;33;34392;-84
2024/04/12 02:45:48;;;;;;;10.98;7.15;;;;;;;14.87;58.77;100456.81;4293816;33;33839;-86
2024/04/12 02:48:17;;;;;;;11.60;6.68;;;;;;;14.98;58.53;100463.09;4302185;33;34004;-86
2024/04/12 02:50:44;;;;;;;12.25;7.75;;;;;;;14.79;58.74;100455.81;4305073;33;34097;-81
2024/04/12 02:53:17;;;;;;;15.63;7.60;;;;;;;14.78;58.79;100454.06;4297572;33;33698;-85
2024/04/12 02:55:47;;;;;;;12.57;7.87;;;;;;;14.73;58.97;100460.94;4301731;33;34465;-85
2024/04/12 02:58:13;;;;;;;12.05;8.20;;;;;;;14.71;58.85;100462.66;4289298;33;33681;-86
2024/04/12 03:00:40;;;;;;;9.80;7.90;;;;;;;14.59;59.29;100471.16;4301819;33;34010;-86
2024/04/12 03:03:07;;;;;;;10.55;7.85;;;;;;;14.66;59.13;100467.81;4302277;33;34078;-85
2024/04/12 03:05:33;;;;;;;11.32;7.82;;;;;;;14.60;59.47;100465.94;4301852;33;33390;-84
2024/04/12 03:08:00;;;;;;;11.38;7.95;;;;;;;14.35;60.11;100467.19;4305305;33;33898;-85
2024/04/12 03:10:31;;;;;;;12.45;8.07;;;;;;;14.45;59.82;100468.25;4315383;33;33818;-82
2024/04/12 03:13:01;;;;;;;11.82;7.95;;;;;;;14.00;61.41;100469.16;4302047;33;32596;-85
2024/04/12 03:15:34;;;;;;;10.10;7.60;;;;;;;14.07;61.53;100467.56;4302436;33;33422;-83
2024/04/12 03:18:03;;;;;;;11.57;7.35;;;;;;;14.02;61.27;100470.06;4289124;33;34508;-87
2024/04/12 03:20:32;;;;;;;11.77;7.47;;;;;;;14.12;60.79;100473.72;4301864;33;34310;-83
2024/04/12 03:22:59;;;;;;;10.75;7.32;;;;;;;14.40;59.93;100475.13;4301429;33;32845;-87
2024/04/12 03:25:28;;;;;;;11.52;7.90;;;;;;;14.36;60.18;100478.53;4301939;33;33928;-87
2024/04/12 03:27:57;;;;;;;8.75;7.78;;;;;;;14.26;60.42;100471.37;4301272;33;34647;-85
2024/04/12 03:30:25;;;;;;;12.10;7.75;;;;;;;14.19;60.81;100474.72;4301104;33;34122;-83
2024/04/12 03:32:52;;;;;;;10.63;8.52;;;;;;;14.16;61.26;100482.50;4301546;33;33856;-86
2024/04/12 03:35:20;;;;;;;10.32;7.87;;;;;;;14.12;61.64;100477.22;4286724;33;32086;-85
2024/04/12 03:40:32;;;;;;;10.57;8.15;;;;;;;14.40;60.91;100484.69;4300597;33;35106;-86
2024/04/12 03:43:02;;;;;;;15.05;8.55;;;;;;;14.23;61.42;100482.62;4306585;33;36852;-87
2024/04/12 03:45:35;;;;;;;10.70;7.87;;;;;;;14.23;61.39;100492.19;4301214;33;33561;-84
2024/04/12 03:48:04;;;;;;;11.48;7.82;;;;;;;14.19;61.31;100496.47;4301704;33;34382;-85
2024/04/12 03:50:31;;;;;;;13.18;8.18;;;;;;;14.18;61.26;100499.94;4300840;33;34158;-86
2024/04/12 03:53:04;;;;;;;10.73;7.62;;;;;;;14.15;60.99;100496.38;4300783;33;33950;-83
2024/04/12 03:55:31;;;;;;;12.63;8.50;;;;;;;14.10;61.09;100502.38;4300521;33;34272;-87
2024/04/12 03:57:57;;;;;;;12.75;8.93;;;;;;;14.00;61.66;100497.84;4302415;33;33520;-82
2024/04/12 04:00:24;;;;;;;11.43;8.02;;;;;;;14.06;61.42;100500.56;4304451;33;34190;-83
2024/04/12 04:02:51;;;;;;;12.55;8.27;;;;;;;14.11;61.19;100505.88;4300592;33;34253;-87
2024/04/12 04:05:25;;;;;;;10.77;8.38;;;;;;;13.92;62.01;100507.22;4305745;33;33231;-86
2024/04/12 04:07:54;;;;;;;10.73;7.72;;;;;;;14.09;61.50;100504.94;4303511;33;32961;-87
2024/04/12 04:10:22;;;;;;;14.87;8.68;;;;;;;13.97;61.96;100510.81;4300980;33;34135;-89
2024/04/12 04:12:49;;;;;;;11.27;8.60;;;;;;;13.91;62.62;100509.81;4301498;33;33987;-88
2024/04/12 04:15:16;;;;;;;12.93;8.73;;;;;;;14.00;62.15;100515.22;4300374;33;33609;-89
2024/04/12 04:17:49;;;;;;;11.88;8.38;;;;;;;13.90;62.31;100508.91;4311333;33;33699;-87
2024/04/12 04:20:17;;;;;;;12.63;8.65;;;;;;;14.16;61.53;100508.56;4303701;33;34880;-88
2024/04/12 04:22:49;;;;;;;12.18;8.98;;;;;;;14.08;61.43;100509.28;4302463;33;34062;-87
2024/04/12 04:25:19;;;;;;;11.65;8.75;;;;;;;14.08;61.54;100513.62;4301060;33;33987;-86
2024/04/12 04:27:46;;;;;;;12.57;9.00;;;;;;;14.16;61.33;100517.25;4314940;33;34060;-85
2024/04/12 04:30:17;;;;;;;13.70;8.90;;;;;;;14.03;61.89;100518.75;4312485;33;35170;-89
2024/04/12 04:32:44;;;;;;;14.18;9.43;;;;;;;14.07;62.09;100517.09;4296206;33;33569;-88
2024/04/12 04:35:11;;;;;;;14.18;9.15;;;;;;;14.18;62.39;100525.13;4300948;33;34220;-85
2024/04/12 04:37:38;;;;;;;13.05;9.63;;;;;;;14.13;63.04;100530.28;4300114;33;34799;-86
2024/04/12 04:40:11;;;;;;;13.43;9.65;;;;;;;14.33;62.61;100522.84;4294203;33;34048;-91
2024/04/12 04:42:38;;;;;;;13.62;9.05;;;;;;;14.34;62.60;100520.25;4294244;33;34628;-87
2024/04/12 04:45:07;;;;;;;13.50;9.30;;;;;;;14.51;61.57;100523.22;4300934;33;32813;-84
2024/04/12 04:47:39;;;;;;;12.70;9.20;;;;;;;14.57;61.89;100528.53;4311625;33;33768;-88
2024/04/12 04:50:08;;;;;;;11.12;8.75;;;;;;;14.82;62.05;100527.25;4314464;33;34153;-86
2024/04/12 04:52:36;;;;;;;11.18;8.52;;;;;;;15.23;60.86;100526.19;4307279;33;34117;-90
2024/04/12 04:55:02;;;;;;;15.23;8.95;;;;;;;15.43;60.35;100522.13;4309833;33;34425;-90
2024/04/12 04:57:30;;;;;;;13.27;9.82;;;;;;;15.70;60.11;100523.41;4308480;33;34293;-83
2024/04/12 05:00:05;;;;;;;11.85;8.90;;;;;;;15.86;59.81;100516.62;4307439;33;34301;-89
2024/04/12 05:02:34;;;;;;;10.63;8.15;;;;;;;16.10;59.03;100511.72;4303352;33;33970;-83
2024/04/12 05:05:05;;;;;;;11.15;8.98;;;;;;;16.45;58.22;100514.72;4303261;33;34719;-90
2024/04/12 05:07:35;;;;;;;12.48;8.70;;;;;;;16.59;57.09;100524.44;4297572;33;33609;-83
2024/04/12 05:10:09;;;;;;;12.77;9.32;;;;;;;16.84;56.22;100523.84;4299263;33;34027;-87
2024/04/12 05:12:40;;;;;;;12.32;8.52;;;;;;;16.74;57.08;100530.75;4289576;33;34162;-89
2024/04/12 05:15:48;;;;;;;13.07;8.50;;;;;;;17.36;55.86;100529.50;4298653;33;33498;-85
2024/04/12 05:18:03;;;;;;;12.50;8.35;;;;;;;17.75;54.61;100534.16;4303179;33;34752;-87
2024/04/12 05:20:40;;;;;;;14.70;8.65;;;;;;;17.71;54.43;100536.72;4302743;33;34995;-83
2024/04/12 05:23:11;;;;;;;13.77;9.25;;;;;;;17.66;53.94;100533.19;4302326;33;33544;-91
2024/04/12 05:25:43;;;;;;;15.82;9.23;;;;;;;17.75;53.84;100528.03;4304653;33;33267;-86
2024/04/12 05:28:12;;;;;;;13.77;9.43;;;;;;;17.91;53.13;100534.22;4303013;33;32630;-90
2024/04/12 05:30:42;;;;;;;16.37;9.35;;;;;;;17.88;52.76;100534.19;4302868;33;33710;-89
2024/04/12 05:33:10;;;;;;;16.45;9.68;;;;;;;17.93;52.38;100524.63;4303031;33;33813;-91
2024/04/12 05:35:37;;;;;;;13.30;8.63;;;;;;;18.03;52.77;100528.16;4301734;33;33474;-89
2024/04/12 05:38:07;;;;;;;12.98;8.52;;;;;;;18.37;51.98;100534.38;4316354;33;36322;-85
2024/04/12 05:40:39;;;;;;;15.48;9.52;;;;;;;17.96;52.58;100533.38;4317475;33;33761;-88
2024/04/12 05:43:13;;;;;;;11.52;8.07;;;;;;;18.03;51.85;100541.25;4304230;33;34808;-83
2024/04/12 05:45:47;;;;;;;12.20;8.32;;;;;;;18.37;50.65;100537.00;4317354;33;33504;-88
2024/04/12 05:48:14;;;;;;;10.15;7.40;;;;;;;18.03;48.56;100543.88;4317341;33;33964;-88
2024/04/12 05:50:40;;;;;;;13.27;8.32;;;;;;;18.01;50.74;100548.28;4317044;33;34359;-89
2024/04/12 05:53:13;;;;;;;14.07;8.88;;;;;;;17.98;49.62;100551.75;4314348;33;34626;-88
2024/04/12 05:55:46;;;;;;;13.82;8.75;;;;;;;18.07;49.92;100559.69;4303015;33;34479;-86
2024/04/12 05:58:16;;;;;;;12.88;7.72;;;;;;;17.83;48.68;100556.91;4301992;33;34524;-88
2024/04/12 06:00:42;;;;;;;13.00;8.23;;;;;;;17.77;49.89;100564.75;4304917;33;34763;-88
2024/04/12 06:03:16;;;;;;;12.57;7.97;;;;;;;17.31;50.40;100567.91;4307706;33;35388;-88
2024/04/12 06:05:46;;;;;;;13.25;8.65;;;;;;;17.85;50.02;100560.44;4303086;33;33138;-88
2024/04/12 06:08:13;;;;;;;12.00;9.30;;;;;;;17.76;49.80;100556.00;4302533;33;34860;-87
2024/04/12 06:10:44;;;;;;;24.15;9.13;;;;;;;17.63;50.27;100568.13;4302602;33;35203;-84
2024/04/12 06:13:11;;;;;;;13.18;8.68;;;;;;;17.70;49.30;100567.31;4289866;33;33469;-89
2024/04/12 06:15:38;;;;;;;12.82;8.90;;;;;;;17.75;49.88;100559.50;4301035;33;33591;-87
2024/04/12 06:18:06;;;;;;;14.02;8.93;;;;;;;17.35;51.29;100561.84;4302751;33;33514;-88
2024/04/12 06:20:33;;;;;;;17.70;8.68;;;;;;;17.47;50.72;100566.28;4289354;33;34670;-83
2024/04/12 06:23:10;;;;;;;14.98;8.32;;;;;;;17.32;51.16;100553.06;4302419;33;33855;-85
2024/04/12 06:25:45;;;;;;;16.05;9.55;;;;;;;17.05;51.89;100564.19;4302462;33;34299;-85
2024/04/12 06:28:12;;;;;;;14.05;9.07;;;;;;;17.04;52.80;100568.53;4289305;33;34400;-87
2024/04/12 06:30:39;;;;;;;18.58;9.25;;;;;;;17.42;52.50;100566.22;4289291;33;33641;-86
2024/04/12 06:33:06;;;;;;;13.93;9.13;;;;;;;17.30;52.27;100571.38;4302879;33;33659;-84
2024/04/12 06:35:33;;;;;;;18.33;8.80;;;;;;;17.33;52.10;100566.19;4289227;33;32669;-87
2024/04/12 06:37:59;;;;;;;13.07;8.18;;;;;;;17.50;51.36;100568.91;4302358;33;33980;-88
2024/04/12 06:40:28;;;;;;;14.98;8.23;;;;;;;17.27;50.88;100560.88;4302281;33;35000;-88
2024/04/12 06:42:55;;;;;;;14.45;8.35;;;;;;;16.99;50.96;100558.03;4309535;33;33458;-86
2024/04/12 06:45:22;;;;;;;12.57;7.95;;;;;;;17.24;51.16;100559.13;4306902;33;33093;-86
2024/04/12 06:47:56;;;;;;;13.30;7.70;;;;;;;17.15;49.92;100559.03;4317131;33;34901;-88
2024/04/12 06:50:24;;;;;;;14.97;8.57;;;;;;;17.39;50.19;100568.84;4315403;33;35021;-84
2024/04/12 06:52:54;;;;;;;13.27;8.07;;;;;;;17.66;49.04;100559.44;4306612;33;33936;-87
2024/04/12 06:55:30;;;;;;;12.75;8.30;;;;;;;17.34;49.56;100562.69;4299293;33;34378;-89
2024/04/12 06:57:56;;;;;;;17.10;8.85;;;;;;;17.14;50.12;100559.03;4302315;33;34903;-89
2024/04/12 07:00:29;;;;;;;12.23;8.98;;;;;;;17.29;49.47;100559.16;4302488;33;33787;-88
2024/04/12 07:02:59;;;;;;;15.70;8.85;;;;;;;17.26;49.88;100564.38;4302297;33;35071;-88
2024/04/12 07:05:27;;;;;;;16.27;7.62;;;;;;;17.48;50.07;100568.91;4302583;33;33156;-88
2024/04/12 07:08:16;;;;;;;14.70;9.05;;;;;;;17.32;50.95;100559.19;4302714;33;33846;-86
2024/04/12 07:10:48;;;;;;;13.73;8.65;;;;;;;17.40;49.50;100564.50;4310162;33;34047;-89
2024/04/12 07:13:21;;;;;;;15.77;8.25;;;;;;;17.68;49.40;100562.91;4312243;33;33433;-88
2024/04/12 07:15:51;;;;;;;16.33;8.50;;;;;;;17.78;49.47;100564.78;4289258;33;33877;-88
2024/04/12 07:18:22;;;;;;;11.32;7.53;;;;;;;18.18;48.89;100564.94;4302324;33;34919;-83
2024/04/12 07:20:49;;;;;;;14.95;8.38;;;;;;;18.12;49.05;100567.56;4302515;33;34061;-89
2024/04/12 07:23:15;;;;;;;9.55;7.05;;;;;;;18.38;47.46;100563.28;4302167;33;33800;-87
2024/04/12 07:25:45;;;;;;;12.68;8.38;;;;;;;18.78;47.33;100573.91;4302545;33;33568;-87
2024/04/12 07:28:15;;;;;;;14.05;9.00;;;;;;;18.78;46.80;100568.66;4305764;33;33876;-87
2024/04/12 07:30:44;;;;;;;12.90;8.10;;;;;;;18.71;47.00;100561.63;4288841;33;34622;-90
2024/04/12 07:33:14;;;;;;;15.18;8.85;;;;;;;18.62;47.22;100566.84;4307589;33;34559;-90
2024/04/12 07:35:48;;;;;;;12.60;8.40;;;;;;;18.25;48.15;100566.72;4311071;33;33204;-89
2024/04/12 07:38:15;;;;;;;14.43;8.30;;;;;;;18.79;46.90;100565.19;4302179;33;34924;-89
2024/04/12 07:40:46;;;;;;;13.68;8.55;;;;;;;18.78;46.73;100576.53;4288973;33;33873;-87
2024/04/12 07:43:12;;;;;;;13.88;7.95;;;;;;;18.75;47.37;100568.66;4301355;33;34181;-86
2024/04/12 07:45:39;;;;;;;14.05;8.35;;;;;;;19.16;47.21;100565.19;4301358;33;33303;-85
2024/04/12 07:48:22;;;;;;;12.80;7.97;;;;;;;19.16;47.29;100562.56;4301372;33;34741;-86
2024/04/12 07:50:54;;;;;;;13.85;8.00;;;;;;;19.29;47.76;100569.59;4290610;33;34987;-89
2024/04/12 07:53:21;;;;;;;14.00;8.35;;;;;;;19.56;45.80;100570.44;4277026;33;33258;-86
2024/04/12 07:56:00;;;;;;;14.23;7.53;;;;;;;20.08;45.24;100565.97;4289003;33;34511;-90
2024/04/12 07:58:28;;;;;;;12.73;7.32;;;;;;;20.30;45.40;100566.72;4290322;33;33984;-93
2024/04/12 08:01:15;;;;;;;14.18;8.45;;;;;;;20.17;44.64;100575.56;4302395;33;34060;-91
2024/04/12 08:03:43;;;;;;;15.80;8.02;;;;;;;19.71;45.78;100573.06;4290856;33;33792;-89
2024/04/12 08:09:04;;;;;;;16.95;9.43;;;;;;;19.75;46.11;100556.41;4303085;33;34200;-94
2024/04/12 08:11:34;;;;;;;12.63;9.30;;;;;;;19.19;47.51;100559.94;4304095;33;33940;-96
2024/04/12 08:14:05;;;;;;;13.15;8.32;;;;;;;19.54;47.39;100559.03;4302133;33;33525;-90
2024/04/12 08:16:38;;;;;;;14.65;8.18;;;;;;;19.79;47.23;100547.62;4289512;33;34078;-96
2024/04/12 08:19:13;;;;;;;13.18;8.60;;;;;;;20.08;46.82;100549.28;4289653;33;33989;-95
2024/04/12 08:21:41;;;;;;;14.90;8.18;;;;;;;20.13;46.79;100550.13;4301808;33;34395;-95
2024/04/12 08:24:11;;;;;;;13.73;7.35;;;;;;;20.07;46.26;100552.78;4301947;33;33970;-85
2024/04/12 08:26:37;;;;;;;14.87;8.35;;;;;;;20.39;46.84;100555.28;4301646;33;33477;-92
2024/04/12 08:29:11;;;;;;;14.20;7.90;;;;;;;20.18;47.22;100548.34;4301951;33;34647;-94
2024/04/12 08:31:38;;;;;;;11.18;7.43;;;;;;;20.59;47.43;100552.56;4297718;33;34151;-85
2024/04/12 08:34:07;;;;;;;14.55;9.23;;;;;;;20.72;45.89;100542.81;4297903;33;33829;-94
2024/04/12 08:36:34;;;;;;;13.77;8.73;;;;;;;20.69;45.57;100548.13;4301971;33;33080;-94
2024/04/12 08:39:43;;;;;;;15.30;7.55;;;;;;;20.67;46.00;100539.34;4312393;33;33762;-94
2024/04/12 08:41:57;;;;;;;11.68;8.10;;;;;;;21.08;45.42;100546.94;4312308;33;34514;-92
2024/04/12 08:44:24;;;;;;;12.60;8.48;;;;;;;20.94;45.95;100540.91;4315256;33;35087;-95
2024/04/12 08:46:50;;;;;;;17.05;7.62;;;;;;;20.84;46.55;100540.97;4315137;33;33467;-96
2024/04/12 08:49:17;;;;;;;14.27;8.27;;;;;;;21.02;46.32;100539.94;4299059;33;33788;-94
2024/04/12 08:51:46;;;;;;;15.38;8.77;;;;;;;20.67;46.48;100536.69;4307381;33;34761;-93
2024/04/12 08:54:14;;;;;;;14.77;7.97;;;;;;;20.81;47.03;100535.72;4299830;33;33573;-94
2024/04/12 08:56:45;;;;;;;16.42;9.07;;;;;;;20.74;46.73;100535.78;4310443;33;33332;-90
2024/04/12 08:59:18;;;;;;;16.27;8.60;;;;;;;20.83;46.81;100530.44;4297282;33;33976;-87
2024/04/12 09:01:45;;;;;;;16.77;9.70;;;;;;;20.78;46.76;100526.97;4296563;33;33891;-92
2024/04/12 09:04:14;;;;;;;15.07;9.30;;;;;;;20.92;46.06;100535.66;4299253;33;34647;-96
2024/04/12 09:06:41;;;;;;;12.60;8.60;;;;;;;20.89;47.48;100530.41;4290767;33;33211;-94
2024/04/12 09:09:13;;;;;;;18.65;9.30;;;;;;;21.30;45.90;100531.81;4291180;33;33653;-94
2024/04/12 09:11:44;;;;;;;13.43;9.32;;;;;;;21.38;44.85;100530.88;4295225;33;33537;-94
2024/04/12 09:14:19;;;;;;;16.05;9.48;;;;;;;21.46;44.71;100530.81;4311868;33;34431;-92
2024/04/12 09:16:49;;;;;;;17.05;9.00;;;;;;;21.19;45.39;100531.91;4300835;33;33156;-94
2024/04/12 09:19:16;;;;;;;15.15;9.27;;;;;;;21.10;45.47;100527.59;4301329;33;33773;-85
2024/04/12 09:21:51;;;;;;;13.23;8.98;;;;;;;21.12;45.53;100527.56;4300996;33;33523;-94
2024/04/12 09:24:21;;;;;;;16.67;8.98;;;;;;;21.35;44.68;100530.91;4301381;33;33573;-88
2024/04/12 09:26:58;;;;;;;16.12;8.95;;;;;;;21.30;45.68;100526.53;4300880;33;34638;-91
2024/04/12 09:29:27;;;;;;;14.20;8.85;;;;;;;21.60;45.14;100523.62;4305491;33;33646;-91
2024/04/12 09:34:46;;;;;;;15.57;9.23;;;;;;;21.27;44.88;100519.50;4315842;33;33532;-93
2024/04/12 09:45:21;;;;;;;17.65;9.65;;;;;;;21.59;44.76;100515.69;4317327;33;34855;-84
2024/04/12 10:52:43;;;;;;;14.93;8.52;;;;;;;22.65;42.24;100467.66;4468051;27;20091;-89
2024/04/12 10:55:11;;;;;;;12.80;8.27;;;;;;;23.15;41.31;100462.47;4332827;33;33323;-88
2024/04/12 10:57:40;;;;;;;14.35;7.75;;;;;;;23.19;39.89;100462.38;4329950;33;33376;-90
2024/04/12 11:00:07;;;;;;;13.82;8.50;;;;;;;23.64;40.27;100457.09;4324707;33;33625;-89
2024/04/12 11:02:35;;;;;;;14.40;8.27;;;;;;;23.78;39.52;100455.06;4317850;33;33832;-88
2024/04/12 11:05:44;;;;;;;14.52;8.18;;;;;;;23.64;39.43;100451.81;4317378;33;32651;-89
2024/04/12 11:07:53;;;;;;;10.95;7.07;;;;;;;23.75;39.32;100452.50;4318321;33;34011;-88
2024/04/12 11:10:39;;;;;;;13.23;6.93;;;;;;;23.75;38.90;100449.84;4317310;33;34360;-88
2024/04/12 11:13:07;;;;;;;16.23;7.35;;;;;;;23.56;38.30;100453.72;4319793;33;33523;-89
2024/04/12 11:32:06;;;;;;;15.38;6.85;;;;;;;23.39;37.13;100432.88;4319873;33;34638;-89
2024/04/12 11:34:38;;;;;;;11.90;6.18;;;;;;;23.12;38.04;100430.78;4330664;33;34318;-88
2024/04/12 11:37:07;;;;;;;12.73;6.35;;;;;;;23.36;37.22;100421.47;4331209;33;33987;-86
2024/04/12 11:39:37;;;;;;;11.45;7.10;;;;;;;23.87;38.15;100416.06;4317427;33;31517;-88
2024/04/12 11:42:05;;;;;;;10.45;6.05;;;;;;;23.39;37.65;100417.00;4330740;33;34483;-88
2024/04/12 11:44:33;;;;;;;12.77;6.97;;;;;;;23.81;38.24;100413.53;4305403;33;32691;-87
2024/04/12 11:47:03;;;;;;;10.65;7.22;;;;;;;23.66;39.06;100418.25;4317527;33;34504;-89
2024/04/12 11:49:45;;;;;;;14.98;8.48;;;;;;;23.21;39.50;100410.28;4316719;33;33484;-90
2024/04/12 11:52:15;;;;;;;11.23;8.07;;;;;;;23.10;39.45;100411.41;4330818;33;33834;-88
2024/04/12 11:54:51;;;;;;;12.85;7.30;;;;;;;23.02;38.88;100408.91;4317750;33;34137;-88
2024/04/12 11:57:22;;;;;;;12.43;7.45;;;;;;;23.26;37.81;100402.25;4330526;33;33492;-88
2024/04/12 12:00:09;;;;;;;9.07;6.45;;;;;;;22.99;39.21;100399.22;4330924;33;34102;-89
2024/04/12 12:02:42;;;;;;;12.52;6.32;;;;;;;23.52;37.15;100393.78;4317498;33;33991;-88
2024/04/12 12:05:16;;;;;;;9.85;5.95;;;;;;;23.20;37.52;100381.22;4329332;33;33789;-87
2024/04/12 12:07:44;;;;;;;8.90;4.78;;;;;;;23.25;34.89;100390.81;4329507;33;34764;-87
2024/04/12 12:10:12;;;;;;;8.95;4.57;;;;;;;23.38;34.42;100377.34;4317439;33;33120;-89
2024/04/12 12:12:39;;;;;;;8.07;3.95;;;;;;;23.08;35.06;100382.34;4330517;33;34551;-90
2024/04/12 12:15:06;;;;;;;8.48;4.10;;;;;;;23.07;33.94;100370.03;4317294;33;33958;-88
2024/04/12 12:17:34;;;;;;;7.35;3.60;;;;;;;23.34;32.77;100368.59;4329101;33;33337;-89
2024/04/12 12:20:01;;;;;;;8.05;3.65;;;;;;;23.44;33.53;100366.63;4317037;33;33137;-89
2024/04/12 12:22:30;;;;;;;9.73;4.10;;;;;;;23.62;33.30;100360.94;4317175;33;33847;-87
2024/04/12 12:24:58;;;;;;;9.45;3.40;;;;;;;23.85;33.46;100359.59;4329220;33;34900;-87
2024/04/12 12:27:25;;;;;;;7.70;3.65;;;;;;;24.17;33.22;100358.81;4329969;33;34667;-86
2024/04/12 12:29:53;;;;;;;10.73;3.90;;;;;;;24.13;32.89;100350.09;4316538;33;34151;-87
2024/04/12 12:32:25;;;;;;;9.25;3.50;;;;;;;23.71;33.27;100355.47;4316266;33;34420;-87
2024/04/12 12:34:53;;;;;;;10.48;3.40;;;;;;;23.79;32.86;100350.91;4317285;33;34128;-86
2024/04/12 12:37:19;;;;;;;8.80;3.25;;;;;;;23.79;33.05;100344.72;4316695;33;34675;-86
2024/04/12 12:39:47;;;;;;;8.02;4.05;;;;;;;24.02;31.92;100342.41;4329897;33;33041;-88
2024/04/12 12:42:16;;;;;;;7.18;3.50;;;;;;;23.71;31.71;100336.94;4304652;33;33886;-86
2024/04/12 12:44:43;;;;;;;9.98;4.03;;;;;;;23.39;33.65;100339.38;4316506;33;34179;-87
2024/04/12 12:47:12;;;;;;;8.95;4.35;;;;;;;23.61;32.35;100332.72;4316394;33;33845;-88
2024/04/12 12:49:53;;;;;;;9.43;3.12;;;;;;;23.35;31.81;100328.00;4329705;33;33435;-87
2024/04/12 12:52:19;;;;;;;9.65;3.42;;;;;;;24.15;31.10;100321.78;4305456;33;33302;-87
2024/04/12 12:54:46;;;;;;;9.50;3.70;;;;;;;23.80;32.32;100319.97;4316142;33;34013;-87
2024/04/12 12:57:17;;;;;;;8.70;3.45;;;;;;;23.72;31.88;100317.50;4329681;33;33922;-86
2024/04/12 12:59:44;;;;;;;6.47;3.62;;;;;;;24.32;32.63;100320.47;4331557;33;33082;-86
2024/04/12 13:02:17;;;;;;;7.45;2.97;;;;;;;23.48;32.04;100312.72;4318388;33;32824;-87
2024/04/12 13:04:46;;;;;;;7.93;2.78;;;;;;;23.72;32.45;100306.91;4344536;33;34982;-88
2024/04/12 13:07:16;;;;;;;9.75;3.67;;;;;;;24.30;32.21;100311.72;4331645;33;33999;-88
2024/04/12 13:09:43;;;;;;;8.68;4.05;;;;;;;23.35;31.54;100304.19;4333605;33;33213;-88
2024/04/12 13:12:09;;;;;;;9.23;3.70;;;;;;;23.73;32.53;100300.72;4333496;33;34601;-90